Skip to main content

NOAA/GLERL Met Station at Chicago, IL

Previous 5 days (top of hour only)
See also Previous 3 Hours (2 minute increments)
Jump down to Data
Switch to [English][Metric]
Zoom: Click and drag, Pan: shift-click and drag, Unzoom: double-click, Unzoom All




Note: Speed = mean wind during 2-minute period at top of hour,
Gust = max wind during 2-minute period at top of hour,
Peak = max wind during entire hour.
• See also 5-day windrose plot


NOAA/GLERL Met Station at Chicago, IL

Previous 5 days (top of hour only)
See also Previous 3 Hours (2 minute increments)
Jump up to Graphs
Switch to [English][Metric]
                  Wind  Wind  Wind   Air   Dew   Rel
                   Spd   Gst   Dir  Temp    Pt   Hum
YYYY-MM-DD   CST   m/s   m/s   deg     C     C     %
2017-11-23 12:00   9.3  10.2   220   6.0  -5.3  44.2
2017-11-23 11:00   8.5   9.6   214   4.8  -6.2  44.8
2017-11-23 10:00   8.4   9.9   206   3.5  -5.9  50.2
2017-11-23 09:00   9.7  10.8   208   2.3  -5.7  55.5
2017-11-23 08:00   8.6   9.3   203   2.0  -6.1  55.0
2017-11-23 07:00   7.9   9.2   211   1.8  -6.1  56.0
2017-11-23 06:00   8.0   9.5   208   1.6  -6.1  56.8
2017-11-23 05:00   9.3  10.8   212   1.4  -6.3  56.6
2017-11-23 04:00   8.0   9.0   208   1.0  -6.9  55.8
2017-11-23 03:00   7.7   8.2   205   1.1  -7.3  53.6
2017-11-23 02:00   7.2   7.8   212   1.3  -7.6  51.7
2017-11-23 01:00   6.2   7.3   232   1.5  -7.6  50.7
2017-11-23 00:00   7.0   8.0   216   1.2  -7.9  50.9
2017-11-22 23:00   7.1   8.1   214   0.7  -7.9  52.7
2017-11-22 22:00   6.5   7.5   206   0.9  -7.4  53.9
2017-11-22 21:00   6.9   7.7   207   1.0  -8.4  49.6
2017-11-22 20:00   5.7   6.7   215   0.8  -8.5  49.8
2017-11-22 19:00   6.2   7.3   261   0.9  -8.9  48.0
2017-11-22 18:00   6.2   7.1   219   1.3  -8.6  47.7
2017-11-22 17:00   4.5   5.3   212   1.6  -8.9  45.6
2017-11-22 16:00   3.6   4.7   272   1.6  -9.9  42.1
2017-11-22 15:00   3.5   3.9   268   1.7 -10.5  40.0
2017-11-22 14:00   3.1   3.7   270   0.8 -11.2  40.3
2017-11-22 13:00   1.8   2.3   272   0.3  -9.7  47.1
2017-11-22 12:00   3.9   4.9   261  -0.3  -8.3  54.9
2017-11-22 11:00   3.0   3.5   291  -1.1  -7.8  60.7
2017-11-22 10:00   4.9   5.7   291  -2.1  -8.7  60.6
2017-11-22 09:00   5.9   6.8   281  -2.7  -8.9  62.4
2017-11-22 08:00   6.3   7.1   288  -3.2  -9.2  63.6
2017-11-22 07:00   6.2   7.1   304  -3.0  -8.3  67.0
2017-11-22 06:00   7.9   8.5   306  -2.8  -8.4  65.2
2017-11-22 05:00   7.8   8.8   320  -2.3  -8.2  64.1
2017-11-22 04:00   8.2   9.0   316  -2.2  -7.8  65.5
2017-11-22 03:00   9.0   9.9   318  -1.7  -7.9  62.9
2017-11-22 02:00   8.7   9.9   318  -1.9  -9.1  58.0
2017-11-22 01:00   7.9   9.1   313  -1.7  -8.3  60.7
2017-11-22 00:00   8.9  10.4   315  -1.5  -8.7  58.0
2017-11-21 23:00  10.2  11.4   316  -1.0  -8.6  56.5
2017-11-21 22:00  12.3  14.2   324  -0.6  -8.8  53.9
2017-11-21 21:00   9.1  10.4   318  -0.3  -9.1  51.4
2017-11-21 20:00  10.5  11.8   320   0.2  -8.2  53.5
2017-11-21 19:00  13.7  14.7   340   1.1  -6.6  56.3
2017-11-21 18:00  10.4  11.9   329   1.8  -8.2  47.7
2017-11-21 17:00   9.3  10.9   323   1.8  -7.4  50.4
2017-11-21 16:00  11.9  13.2   330   1.9  -7.2  51.0
2017-11-21 15:00  13.3  14.5   323   2.9  -5.3  54.8
2017-11-21 14:00   7.0   8.0   291   4.8  -7.0  42.2
2017-11-21 13:00  12.1  13.0   293   5.4  -8.9  34.9
2017-11-21 12:00   9.4  11.0   290   6.5  -6.0  40.4
2017-11-21 11:00  10.5  11.6   256   5.7  -0.8  62.8
2017-11-21 10:00  11.5  13.2   269   6.8   1.1  66.9
2017-11-21 09:00  10.2  11.6   259   8.0   0.2  57.8
2017-11-21 08:00  11.3  12.9   251   7.5   0.3  60.3
2017-11-21 07:00  10.5  12.1   231   7.6   0.3  59.8
2017-11-21 06:00  10.5  11.4   223   7.6   0.5  60.5
2017-11-21 05:00  12.4  13.8   220   7.8   0.4  59.3
2017-11-21 04:00  14.5  16.2   211   7.1   0.3  61.8
2017-11-21 03:00  14.8  16.8   213   6.8   0.2  62.7
2017-11-21 02:00  15.6  17.5   211   6.9   0.0  61.5
2017-11-21 01:00  16.8  19.3   210   7.0   0.0  60.7
2017-11-21 00:00  16.5  18.3   207   7.3  -0.3  58.2
2017-11-20 23:00  17.1  19.9   209   7.7  -0.7  55.3
2017-11-20 22:00  18.9  22.1   207   7.8  -0.7  54.8
2017-11-20 21:00  18.1  21.8   208   8.0  -0.4  55.3
2017-11-20 20:00  17.6  19.8   208   8.6   0.0  54.7
2017-11-20 19:00  16.7  18.2   208   9.1   0.7  55.6
2017-11-20 18:00  17.7  19.9   205   9.6   1.6  57.1
2017-11-20 17:00  17.3  20.0   202  10.5   2.1  55.7
2017-11-20 16:00  17.1  19.5   206  11.5   0.9  48.0
2017-11-20 15:00  14.3  15.6   207  11.4   0.5  47.0
2017-11-20 14:00  13.3  14.1   209  10.9  -0.2  46.1
2017-11-20 13:00  11.7  13.4   219   9.7  -0.5  48.7
2017-11-20 12:00  12.1  13.2   215   8.8  -1.1  49.8
2017-11-20 11:00  14.0  16.0   213   7.9  -1.9  49.8
2017-11-20 10:00  11.1  12.3   213   6.0  -2.2  55.5
2017-11-20 09:00  12.1  14.2   208   4.5  -2.4  60.6
2017-11-20 08:00  11.5  13.4   213   3.5  -2.8  63.4
2017-11-20 07:00  16.0  17.7   214   3.0  -3.3  63.4
2017-11-20 06:00  14.1  16.4   213   2.8  -3.4  63.5
2017-11-20 05:00  11.5  13.2   210   3.0  -4.0  60.0
2017-11-20 04:00  10.6  11.8   216   2.7  -3.3  64.6
2017-11-20 03:00  10.2  11.8   227   3.5  -4.2  57.1
2017-11-20 02:00  11.3  13.3   239   3.2  -4.6  56.6
2017-11-20 01:00  12.4  14.7   235   2.8  -5.0  56.6
2017-11-20 00:00  10.9  13.1   235   2.7  -5.2  55.9
2017-11-19 23:00  11.5  14.1   251   2.0  -6.1  54.9
2017-11-19 22:00  11.7  13.6   254   1.0  -6.0  59.7
2017-11-19 21:00   7.3   9.9   243   0.8  -6.5  58.0
2017-11-19 20:00   6.9   8.5   246   0.7  -6.6  58.3
2017-11-19 19:00   8.0   9.6   259   1.2  -7.0  54.6
2017-11-19 18:00   7.6   8.5   271   1.2  -8.0  50.4
2017-11-19 17:00  11.3  13.0   277   1.4  -7.8  50.6
2017-11-19 16:00   9.4  11.7   277   1.5  -9.4  44.1
2017-11-19 15:00   8.4  10.3   277   1.7  -8.3  47.4
2017-11-19 14:00   7.6  10.2   289   1.4  -8.3  48.6
2017-11-19 13:00   6.8   8.7   279   0.7  -7.8  53.1
2017-11-19 12:00   9.7  11.2   283   0.2  -6.9  58.8
2017-11-19 10:00   8.6  10.9   285  -0.5  -7.1  61.0
2017-11-19 09:00   9.7  11.6   318  -0.9  -8.0  58.9
2017-11-19 08:00   8.6  10.7   295  -0.6  -6.6  63.9
2017-11-19 07:00   8.6   9.4   311   0.4  -5.5  64.5
2017-11-19 06:00   8.2   9.5   315   0.7  -5.8  61.8
2017-11-19 05:00  11.0  12.5   328   0.7  -6.3  59.7
2017-11-19 04:00   9.5  11.3   306   1.4  -5.1  62.1
2017-11-19 03:00  10.1  11.3   306   1.7  -4.5  63.3
2017-11-19 02:00  10.8  12.4   296   2.5  -3.2  65.8
2017-11-19 01:00   9.0  10.0   310   3.5  -1.7  68.8
2017-11-19 00:00   9.6  10.7   310   4.0  -1.7  66.2
2017-11-18 23:00   8.9   9.6   326   4.2  -1.5  66.4
2017-11-18 22:00  13.9  15.2   327   4.5  -2.0  62.6
2017-11-18 21:00  11.0  12.3   322   4.6  -0.6  68.7
2017-11-18 20:00  10.6  11.9   323   4.6  -0.5  69.6
2017-11-18 19:00  13.2  14.3   322   4.9   0.3  71.8
2017-11-18 18:00  13.4  14.6   325   5.1   1.2  75.6